createdAt,value
2023-04-08T00:02:02.895Z,102264.25
2023-04-08T00:04:32.104Z,102268.98
2023-04-08T00:07:01.549Z,102266.36
2023-04-08T00:09:30.072Z,102268.10
2023-04-08T00:11:58.493Z,102272.14
2023-04-08T00:14:27.389Z,102279.33
2023-04-08T00:16:56.578Z,102279.34
2023-04-08T00:19:25.584Z,102284.95
2023-04-08T00:21:54.056Z,102286.36
2023-04-08T00:24:22.400Z,102286.89
2023-04-08T00:26:50.734Z,102286.00
2023-04-08T00:29:19.479Z,102289.34
2023-04-08T00:31:47.869Z,102290.56
2023-04-08T00:34:16.168Z,102293.71
2023-04-08T00:36:45.874Z,102288.45
2023-04-08T00:39:14.728Z,102291.98
2023-04-08T00:41:43.456Z,102295.13
2023-04-08T00:44:12.000Z,102293.91
2023-04-08T00:46:42.069Z,102296.20
2023-04-08T00:49:10.593Z,102299.89
2023-04-08T00:51:38.814Z,102297.60
2023-04-08T00:54:07.919Z,102299.19
2023-04-08T00:56:37.054Z,102299.90
2023-04-08T00:59:05.406Z,102296.39
2023-04-08T01:01:44.200Z,102293.77
2023-04-08T01:04:23.106Z,102292.90
2023-04-08T01:07:13.452Z,102289.92
2023-04-08T01:09:49.284Z,102288.02
2023-04-08T01:12:29.226Z,102278.54
2023-04-08T01:15:03.117Z,102272.94
2023-04-08T01:17:33.286Z,102268.21
2023-04-08T01:20:04.066Z,102268.94
2023-04-08T01:22:36.336Z,102268.75
2023-04-08T01:25:19.579Z,102265.59
2023-04-08T01:27:48.750Z,102268.76
2023-04-08T01:30:20.076Z,102270.16
2023-04-08T01:32:49.273Z,102269.64
2023-04-08T01:35:17.638Z,102273.50
2023-04-08T01:37:51.924Z,102270.16
2023-04-08T01:40:20.704Z,102271.92
2023-04-08T01:42:49.162Z,102269.29
2023-04-08T01:45:17.495Z,102268.06
2023-04-08T01:47:49.158Z,102261.05
2023-04-08T01:50:17.491Z,102263.68
2023-04-08T01:52:48.853Z,102266.31
2023-04-08T01:55:20.492Z,102262.80
2023-04-08T01:57:51.668Z,102264.90
2023-04-08T02:00:21.756Z,102268.07
2023-04-08T02:02:54.193Z,102272.62
2023-04-08T02:05:23.504Z,102270.52
2023-04-08T02:07:52.328Z,102278.59
2023-04-08T02:10:22.845Z,102281.41
2023-04-08T02:12:51.097Z,102279.99
2023-04-08T02:15:19.763Z,102282.27
2023-04-08T02:18:01.192Z,102287.89
2023-04-08T02:20:40.238Z,102296.67
2023-04-08T02:23:21.286Z,102298.23
2023-04-08T02:25:49.728Z,102304.73
2023-04-08T02:28:18.826Z,102308.94
2023-04-08T02:30:50.386Z,102310.69
2023-04-08T02:33:21.277Z,102315.79
2023-04-08T02:35:51.310Z,102318.58
2023-04-08T02:38:30.148Z,102319.98
2023-04-08T02:40:59.162Z,102327.88
2023-04-08T02:43:32.027Z,102328.59
2023-04-08T02:46:10.197Z,102328.06
2023-04-08T02:48:39.832Z,102331.40
2023-04-08T02:51:08.639Z,102334.02
2023-04-08T02:53:38.808Z,102335.95
2023-04-08T02:56:10.990Z,102332.96
2023-04-08T02:58:39.328Z,102335.60
2023-04-08T03:01:09.143Z,102339.63
2023-04-08T03:03:41.440Z,102347.54
2023-04-08T03:06:09.903Z,102350.69
2023-04-08T03:08:38.290Z,102356.30
2023-04-08T03:11:06.575Z,102359.99
2023-04-08T03:13:35.790Z,102365.26
2023-04-08T03:16:04.315Z,102364.39
2023-04-08T03:18:34.237Z,102375.27
2023-04-08T03:21:03.687Z,102377.38
2023-04-08T03:23:34.339Z,102382.29
2023-04-08T03:26:02.865Z,102384.21
2023-04-08T03:28:31.353Z,102384.40
2023-04-08T03:31:01.206Z,102389.15
2023-04-08T03:33:31.499Z,102384.76
2023-04-08T03:35:59.745Z,102390.36
2023-04-08T03:38:28.062Z,102392.99
2023-04-08T03:40:56.390Z,102397.20
2023-04-08T03:43:25.970Z,102404.05
2023-04-08T03:45:54.410Z,102407.02
2023-04-08T03:48:25.329Z,102407.20
2023-04-08T03:50:54.222Z,102408.80
2023-04-08T03:53:22.856Z,102416.16
2023-04-08T03:55:51.390Z,102418.29
2023-04-08T03:58:19.938Z,102426.88
2023-04-08T04:00:48.390Z,102433.02
2023-04-08T04:03:17.918Z,102438.80
2023-04-08T04:05:46.604Z,102442.67
2023-04-08T04:08:15.695Z,102449.54
2023-04-08T04:10:43.972Z,102458.48
2023-04-08T04:13:12.211Z,102464.64
2023-04-08T04:15:41.160Z,102470.26
2023-04-08T04:18:09.885Z,102482.36
2023-04-08T04:20:42.676Z,102491.67
2023-04-08T04:23:10.974Z,102501.70
2023-04-08T04:25:42.120Z,102508.21
2023-04-08T04:35:49.554Z,102557.40
2023-04-08T04:38:17.972Z,102586.05
2023-04-08T04:40:48.016Z,102586.92
2023-04-08T04:43:17.483Z,102588.85
2023-04-08T04:45:47.427Z,102602.56
2023-04-08T04:48:16.740Z,102607.15
2023-04-08T04:50:45.796Z,102618.04
2023-04-08T04:53:18.871Z,102634.23
2023-04-08T04:55:47.373Z,102641.60
2023-04-08T04:58:15.691Z,102650.04
2023-04-08T05:00:44.596Z,102663.77
2023-04-08T05:03:14.076Z,102670.27
2023-04-08T05:05:42.578Z,102680.66
2023-04-08T05:08:11.554Z,102697.89
2023-04-08T05:10:41.453Z,102715.99
2023-04-08T05:13:16.236Z,102732.17
2023-04-08T05:15:46.357Z,102748.52
2023-04-08T05:18:15.726Z,102765.05
2023-04-08T05:20:47.270Z,102777.02
2023-04-08T05:23:16.109Z,102784.58
2023-04-08T05:25:44.431Z,102792.15
2023-04-08T05:28:19.629Z,102806.58
2023-04-08T05:30:51.810Z,102800.77
2023-04-08T05:33:20.591Z,102810.80
2023-04-08T05:35:53.443Z,102820.12
2023-04-08T05:38:22.235Z,102827.68
2023-04-08T05:40:50.651Z,102840.34
2023-04-08T05:43:19.228Z,102853.54
2023-04-08T05:45:47.693Z,102865.84
2023-04-08T05:48:17.277Z,102868.48
2023-04-08T05:50:46.748Z,102876.75
2023-04-08T05:53:15.459Z,102885.02
2023-04-08T05:55:43.729Z,102892.20
2023-04-08T05:58:12.442Z,102895.36
2023-04-08T06:00:40.807Z,102895.87
2023-04-08T06:03:20.489Z,102901.17
2023-04-08T06:05:50.534Z,102905.73
2023-04-08T06:08:19.800Z,102916.83
2023-04-08T06:10:51.770Z,102920.68
2023-04-08T06:13:25.801Z,102927.55
2023-04-08T06:15:54.451Z,102942.82
2023-04-08T06:18:23.038Z,102967.23
2023-04-08T06:20:51.278Z,103001.50
2023-04-08T06:23:19.443Z,103028.77
2023-04-08T06:25:47.857Z,103036.15
2023-04-08T06:28:16.460Z,103040.90
2023-04-08T06:30:47.852Z,103041.78
2023-04-08T06:33:16.212Z,103047.54
2023-04-08T06:35:44.450Z,103052.09
2023-04-08T06:38:13.537Z,103064.93
2023-04-08T06:40:42.066Z,103067.92
2023-04-08T06:43:10.611Z,103061.70
2023-04-08T06:45:43.151Z,103056.20
2023-04-08T06:48:12.221Z,103049.10
2023-04-08T06:50:40.626Z,103048.70
2023-04-08T06:53:09.881Z,103059.57
2023-04-08T06:55:38.463Z,103057.38
2023-04-08T06:58:07.664Z,103058.04
2023-04-08T07:00:37.257Z,103070.27
2023-04-08T07:03:12.610Z,103080.02
2023-04-08T07:05:42.526Z,103091.32
2023-04-08T07:08:10.918Z,103095.44
2023-04-08T07:10:40.235Z,103090.04
2023-04-08T07:13:08.608Z,103091.08
2023-04-08T07:15:37.555Z,103095.83
2023-04-08T07:18:06.410Z,103093.55
2023-04-08T07:20:38.634Z,103078.11
2023-04-08T07:23:07.132Z,103058.82
2023-04-08T07:25:36.208Z,103046.62
2023-04-08T07:28:04.582Z,103032.54
2023-04-08T07:30:33.636Z,103007.55
2023-04-08T07:33:02.135Z,102984.15
2023-04-08T07:35:38.590Z,102960.52
2023-04-08T07:38:11.779Z,102946.23
2023-04-08T07:40:40.121Z,102930.26
2023-04-08T07:43:09.843Z,102916.93
2023-04-08T07:45:38.212Z,102909.09
2023-04-08T07:48:08.539Z,102905.20
2023-04-08T07:51:09.146Z,102904.33
2023-04-08T07:53:28.837Z,102883.10
2023-04-08T07:55:57.292Z,102867.98
2023-04-08T08:00:38.518Z,102866.21
2023-04-08T08:03:14.116Z,102906.06
2023-04-08T08:05:41.408Z,102888.88
2023-04-08T08:08:11.400Z,102867.14
2023-04-08T08:10:39.080Z,102848.63
2023-04-08T08:13:06.512Z,102804.59
2023-04-08T08:15:33.743Z,102766.43
2023-04-08T08:18:02.335Z,102717.73
2023-04-08T08:20:29.857Z,102694.52
2023-04-08T08:22:58.082Z,102691.27
2023-04-08T08:25:26.261Z,102667.64
2023-04-08T08:27:55.041Z,102639.16
2023-04-08T08:30:22.159Z,102602.75
2023-04-08T08:32:51.644Z,102569.43
2023-04-08T08:35:18.861Z,102543.13
2023-04-08T08:37:46.358Z,102514.95
2023-04-08T08:40:13.789Z,102482.44
2023-04-08T08:42:41.092Z,102455.60
2023-04-08T08:45:08.452Z,102443.25
2023-04-08T08:47:35.897Z,102421.89
2023-04-08T08:57:20.414Z,102378.25
2023-04-08T08:59:49.563Z,102359.89
2023-04-08T09:02:27.230Z,102334.69
2023-04-08T09:05:00.598Z,102319.91
2023-04-08T09:07:32.405Z,102314.86
2023-04-08T09:10:00.825Z,102314.53
2023-04-08T09:12:31.647Z,102294.45
2023-04-08T09:15:05.074Z,102266.02
2023-04-08T09:17:35.265Z,102235.32
2023-04-08T09:20:12.219Z,102206.91
2023-04-08T09:22:54.152Z,102182.12
2023-04-08T09:25:33.131Z,102157.51
2023-04-08T09:28:03.397Z,102128.75
2023-04-08T09:30:32.594Z,102096.08
2023-04-08T09:33:07.651Z,102062.21
2023-04-08T09:35:36.745Z,102023.14
2023-04-08T09:38:05.204Z,102002.88
2023-04-08T09:40:36.685Z,101981.47
2023-04-08T09:43:05.964Z,101961.80
2023-04-08T09:45:34.561Z,101940.77
2023-04-08T09:48:22.084Z,101929.90
2023-04-08T09:50:52.192Z,101911.61
2023-04-08T09:53:23.446Z,101903.83
2023-04-08T09:55:55.709Z,101903.40
2023-04-08T09:58:55.285Z,101904.88
2023-04-08T10:01:38.157Z,101904.38
2023-04-08T10:04:10.210Z,101912.02
2023-04-08T10:06:42.088Z,101920.39
2023-04-08T10:09:10.709Z,101938.55
2023-04-08T10:11:39.011Z,101955.30
2023-04-08T10:14:09.801Z,101976.41
2023-04-08T10:16:39.076Z,102010.10
2023-04-08T10:19:42.312Z,102047.23
2023-04-08T10:22:49.041Z,102106.14
2023-04-08T10:25:17.531Z,102158.27
2023-04-08T10:27:45.862Z,102203.77
2023-04-08T10:30:26.796Z,102260.82
2023-04-08T10:33:00.170Z,102300.59
2023-04-08T10:35:33.010Z,102325.83
2023-04-08T10:38:01.798Z,102336.65
2023-04-08T10:40:39.189Z,102339.69
2023-04-08T10:43:08.171Z,102342.86
2023-04-08T10:45:38.719Z,102337.70
2023-04-08T10:48:20.841Z,102328.38
2023-04-08T10:52:58.650Z,102313.45
2023-04-08T10:55:27.565Z,102290.77
2023-04-08T10:58:10.022Z,102275.80
2023-04-08T11:00:40.227Z,102261.54
2023-04-08T11:03:11.979Z,102251.02
2023-04-08T11:05:48.034Z,102239.36
2023-04-08T11:08:19.538Z,102220.60
2023-04-08T11:10:48.942Z,102207.61
2023-04-08T11:13:19.252Z,102199.15
2023-04-08T11:15:48.467Z,102188.89
2023-04-08T11:18:18.288Z,102184.42
2023-04-08T11:20:53.234Z,102170.59
2023-04-08T11:23:23.222Z,102156.48
2023-04-08T11:25:51.632Z,102141.71
2023-04-08T11:28:20.921Z,102130.94
2023-04-08T11:30:49.812Z,102123.84
2023-04-08T11:33:19.014Z,102114.32
2023-04-08T11:35:51.440Z,102096.09
2023-04-08T11:38:23.061Z,102077.37
2023-04-08T11:40:59.339Z,102061.12
2023-04-08T11:43:28.905Z,102053.77
2023-04-08T11:45:58.687Z,102041.42
2023-04-08T11:48:27.577Z,102032.27
2023-04-08T11:51:12.800Z,102024.16
2023-04-08T11:53:48.089Z,102002.94
2023-04-08T11:56:20.488Z,101990.88
2023-04-08T11:58:50.839Z,101983.90
2023-04-08T12:01:19.826Z,101971.81
2023-04-08T12:03:57.246Z,101959.16
2023-04-08T12:06:27.647Z,101936.29
2023-04-08T12:08:58.262Z,101915.55
2023-04-08T12:11:26.500Z,101901.57
2023-04-08T12:13:55.855Z,101885.48
2023-04-08T12:16:24.398Z,101859.77
2023-04-08T12:18:53.079Z,101835.98
2023-04-08T12:21:22.086Z,101800.98
2023-04-08T12:23:51.342Z,101761.58
2023-04-08T12:26:24.567Z,101737.23
2023-04-08T12:28:53.017Z,101720.66
2023-04-08T12:31:22.924Z,101693.13
2023-04-08T12:33:53.413Z,101671.77
2023-04-08T12:36:21.783Z,101669.96
2023-04-08T12:38:50.975Z,101663.58
2023-04-08T12:41:20.322Z,101695.49
2023-04-08T12:43:48.852Z,101706.40
2023-04-08T12:46:17.943Z,101716.87
2023-04-08T12:48:48.960Z,101733.01
2023-04-08T12:51:21.553Z,101747.44
2023-04-08T12:53:50.157Z,101765.83
2023-04-08T12:56:18.586Z,101783.57
2023-04-08T12:58:52.476Z,101804.62
2023-04-08T13:01:21.107Z,101821.84
2023-04-08T13:03:50.356Z,101835.33
2023-04-08T13:06:18.943Z,101850.02
2023-04-08T13:08:47.635Z,101866.02
2023-04-08T13:11:18.158Z,101880.72
2023-04-08T13:13:48.868Z,101900.47
2023-04-08T13:16:17.379Z,101926.31
2023-04-08T13:18:49.527Z,101940.26
2023-04-08T13:21:18.045Z,101958.31
2023-04-08T13:23:47.120Z,101964.31
2023-04-08T13:26:15.454Z,101971.70
2023-04-08T13:31:19.961Z,101971.98
2023-04-08T13:33:48.719Z,101983.52
2023-04-08T13:36:19.066Z,101980.66
2023-04-08T13:38:48.753Z,101982.90
2023-04-08T13:41:17.711Z,101982.49
2023-04-08T13:43:46.114Z,101994.74
2023-04-08T13:46:14.684Z,101996.17
2023-04-08T13:48:44.741Z,102003.30
2023-04-08T13:51:13.538Z,102010.67
2023-04-08T13:53:41.842Z,102017.42
2023-04-08T13:56:10.062Z,102028.02
2023-04-08T13:58:39.602Z,102040.23
2023-04-08T14:01:09.377Z,102044.97
2023-04-08T14:03:37.929Z,102046.67
2023-04-08T14:06:06.298Z,102049.85
2023-04-08T14:08:36.251Z,102057.50
2023-04-08T14:11:06.342Z,102065.11
2023-04-08T14:13:34.801Z,102070.88
2023-04-08T14:16:06.508Z,102074.63
2023-04-08T14:18:38.644Z,102085.05
2023-04-08T14:21:07.703Z,102095.31
2023-04-08T14:23:36.432Z,102103.45
2023-04-08T14:26:05.171Z,102110.52
2023-04-08T14:28:37.981Z,102120.22
2023-04-08T14:31:06.510Z,102138.05
2023-04-08T14:33:36.318Z,102142.23
2023-04-08T14:36:06.452Z,102147.94
2023-04-08T14:38:35.340Z,102161.56
2023-04-08T14:41:05.461Z,102173.02
2023-04-08T14:43:34.392Z,102177.20
2023-04-08T14:46:02.706Z,102189.83
2023-04-08T14:48:31.546Z,102199.96
2023-04-08T14:51:00.259Z,102206.71
2023-04-08T14:53:48.498Z,102211.46
2023-04-08T14:56:16.990Z,102217.98
2023-04-08T14:58:48.039Z,102223.58
2023-04-08T15:01:17.182Z,102231.33
2023-04-08T15:03:47.643Z,102239.04
2023-04-08T15:06:19.733Z,102241.84
2023-04-08T15:08:48.505Z,102237.54
2023-04-08T15:11:17.287Z,102231.35
2023-04-08T15:13:59.705Z,102227.63
2023-04-08T15:16:31.676Z,102224.46
2023-04-08T15:19:00.683Z,102223.77
2023-04-08T15:21:29.741Z,102211.45
2023-04-08T15:23:58.741Z,102171.48
2023-04-08T15:26:29.483Z,102143.06
2023-04-08T15:28:59.391Z,102070.60
2023-04-08T15:31:28.027Z,102050.58
2023-04-08T15:33:56.765Z,102037.46
2023-04-08T15:36:25.444Z,102030.34
2023-04-08T15:38:54.449Z,102023.67
2023-04-08T15:41:24.960Z,102015.03
2023-04-08T15:43:54.255Z,102006.05
2023-04-08T15:46:22.828Z,101997.29
2023-04-08T15:48:52.100Z,101986.39
2023-04-08T15:51:21.154Z,101977.10
2023-04-08T15:53:51.970Z,101970.69
2023-04-08T15:56:23.027Z,101961.42
2023-04-08T15:58:53.145Z,101949.69
2023-04-08T16:01:21.743Z,101942.11
2023-04-08T16:03:52.610Z,101935.85
2023-04-08T16:06:21.139Z,101925.89
2023-04-08T16:08:51.876Z,101920.14
2023-04-08T16:11:22.799Z,101915.45
2023-04-08T16:13:54.060Z,101903.02
2023-04-08T16:16:22.881Z,101898.73
2023-04-08T16:18:52.898Z,101892.27
2023-04-08T16:21:21.364Z,101886.38
2023-04-08T16:23:50.138Z,101877.13
2023-04-08T16:26:21.985Z,101872.40
2023-04-08T16:28:51.949Z,101865.23
2023-04-08T16:31:20.404Z,101856.30
2023-04-08T16:33:49.921Z,101845.38
2023-04-08T16:36:19.433Z,101840.39
2023-04-08T16:38:47.778Z,101837.70
2023-04-08T16:41:16.249Z,101834.64
2023-04-08T16:43:44.628Z,101836.89
2023-04-08T16:46:15.548Z,101840.02
2023-04-08T16:48:45.131Z,101841.14
2023-04-08T16:51:13.664Z,101837.15
2023-04-08T16:53:42.773Z,101846.44
2023-04-08T16:56:16.680Z,101849.41
2023-04-08T16:58:45.738Z,101850.59
2023-04-08T17:01:16.747Z,101858.64
2023-04-08T17:03:48.818Z,101865.62
2023-04-08T17:06:18.118Z,101869.09
2023-04-08T17:08:49.371Z,101880.34
2023-04-08T17:11:18.360Z,101882.41
2023-04-08T17:13:47.219Z,101888.08
2023-04-08T17:16:16.886Z,101892.89
2023-04-08T17:18:45.436Z,101895.46
2023-04-08T17:21:16.788Z,101897.89
2023-04-08T17:23:52.531Z,101901.30
2023-04-08T17:26:25.164Z,101902.27
2023-04-08T17:28:53.859Z,101893.19
2023-04-08T17:31:23.104Z,101886.64
2023-04-08T17:33:51.880Z,101882.36
2023-04-08T17:36:20.338Z,101882.15
2023-04-08T17:38:50.238Z,101885.08
2023-04-08T17:41:29.802Z,101886.03
2023-04-08T17:44:08.042Z,101888.05
2023-04-08T17:46:37.159Z,101888.44
2023-04-08T17:49:08.272Z,101885.80
2023-04-08T17:51:37.555Z,101893.84
2023-04-08T17:54:06.217Z,101895.72
2023-04-08T17:56:40.445Z,101898.27
2023-04-08T17:59:09.328Z,101905.66
2023-04-08T18:01:41.391Z,101913.88
2023-04-08T18:04:13.020Z,101922.29
2023-04-08T18:06:41.568Z,101932.33
2023-04-08T18:09:13.174Z,101943.96
2023-04-08T18:11:42.861Z,101965.44
2023-04-08T18:14:13.968Z,101986.77
2023-04-08T18:16:42.575Z,101997.20
2023-04-08T18:19:13.844Z,102006.44
2023-04-08T18:21:42.280Z,102011.79
2023-04-08T18:24:11.267Z,102019.03
2023-04-08T18:26:43.934Z,102018.96
2023-04-08T18:29:16.242Z,102028.20
2023-04-08T18:31:47.898Z,102031.33
2023-04-08T18:34:17.426Z,102034.41
2023-04-08T18:36:47.326Z,102037.52
2023-04-08T18:39:15.735Z,102047.25
2023-04-08T18:41:46.559Z,102053.25
2023-04-08T18:44:15.637Z,102058.34
2023-04-08T18:46:46.134Z,102070.14
2023-04-08T18:49:15.086Z,102077.23
2023-04-08T18:51:58.913Z,102080.30
2023-04-08T18:54:32.387Z,102077.89
2023-04-08T18:57:03.082Z,102079.20
2023-04-08T18:59:33.063Z,102078.76
2023-04-08T19:02:01.766Z,102084.16
2023-04-08T19:04:31.015Z,102085.13
2023-04-08T19:06:59.514Z,102089.20
2023-04-08T19:09:27.768Z,102086.76
2023-04-08T19:11:56.840Z,102079.88
2023-04-08T19:14:25.779Z,102068.23
2023-04-08T19:16:57.013Z,102073.65
2023-04-08T19:19:28.110Z,102077.83
2023-04-08T19:21:56.502Z,102073.36
2023-04-08T19:24:27.101Z,102080.58
2023-04-08T19:26:56.197Z,102076.52
2023-04-08T19:29:24.681Z,102079.16
2023-04-08T19:31:53.878Z,102079.84
2023-04-08T19:34:22.140Z,102077.11
2023-04-08T19:36:50.970Z,102081.60
2023-04-08T19:39:25.975Z,102080.63
2023-04-08T19:42:01.475Z,102082.14
2023-04-08T19:44:33.328Z,102089.22
2023-04-08T19:47:11.852Z,102089.79
2023-04-08T19:49:40.646Z,102090.89
2023-04-08T19:52:11.188Z,102089.84
2023-04-08T19:54:43.653Z,102086.66
2023-04-08T19:57:13.152Z,102087.02
2023-04-08T19:59:41.920Z,102090.86
2023-04-08T20:02:11.385Z,102088.76
2023-04-08T20:04:42.068Z,102087.05
2023-04-08T20:07:10.726Z,102080.04
2023-04-08T20:09:39.757Z,102075.52
2023-04-08T20:12:09.395Z,102081.55
2023-04-08T20:14:42.444Z,102074.41
2023-04-08T20:17:11.973Z,102076.27
2023-04-08T20:19:42.241Z,102064.95
2023-04-08T20:22:12.939Z,102069.16
2023-04-08T20:24:42.433Z,102071.54
2023-04-08T20:27:14.431Z,102069.34
2023-04-08T20:29:43.851Z,102080.14
2023-04-08T20:32:13.634Z,102093.55
2023-04-08T20:34:42.870Z,102089.05
2023-04-08T20:37:12.336Z,102086.67
2023-04-08T20:39:41.515Z,102080.56
2023-04-08T20:42:09.969Z,102081.11
2023-04-08T20:44:38.672Z,102078.31
2023-04-08T20:47:09.498Z,102071.87
2023-04-08T20:49:41.357Z,102070.50
2023-04-08T20:52:16.676Z,102066.69
2023-04-08T20:54:45.887Z,102065.46
2023-04-08T20:57:14.132Z,102064.96
2023-04-08T20:59:42.374Z,102063.95
2023-04-08T21:02:10.989Z,102064.69
2023-04-08T21:04:40.002Z,102073.16
2023-04-08T21:07:08.242Z,102074.61
2023-04-08T21:09:36.909Z,102072.73
2023-04-08T21:12:05.095Z,102074.52
2023-04-08T21:14:34.969Z,102082.09
2023-04-08T21:17:03.794Z,102081.23
2023-04-08T21:19:32.120Z,102084.40
2023-04-08T21:22:00.621Z,102081.27
2023-04-08T21:24:29.900Z,102085.88
2023-04-08T21:26:58.251Z,102093.30
2023-04-08T21:29:26.900Z,102097.57
2023-04-08T21:31:55.878Z,102101.65
2023-04-08T21:34:24.171Z,102109.41
2023-04-08T21:36:52.486Z,102111.90
2023-04-08T21:39:21.398Z,102113.69
2023-04-08T21:41:49.651Z,102109.86
2023-04-08T21:44:17.929Z,102108.66
2023-04-08T21:46:46.131Z,102108.70
2023-04-08T21:49:14.410Z,102106.99
2023-04-08T21:51:42.670Z,102106.89
2023-04-08T21:54:11.170Z,102110.97
2023-04-08T21:56:39.572Z,102113.11
2023-04-08T21:59:08.243Z,102115.09
2023-04-08T22:01:37.289Z,102113.89
2023-04-08T22:04:06.531Z,102115.52
2023-04-08T22:06:34.909Z,102115.73
2023-04-08T22:09:03.956Z,102120.33
2023-04-08T22:11:32.474Z,102126.88
2023-04-08T22:14:00.708Z,102123.39
2023-04-08T22:16:29.840Z,102125.89
2023-04-08T22:18:58.657Z,102128.39
2023-04-08T22:21:29.805Z,102130.70
2023-04-08T22:23:59.076Z,102130.52
2023-04-08T22:26:27.885Z,102138.45
2023-04-08T22:28:59.946Z,102149.16
2023-04-08T22:31:30.145Z,102149.85
2023-04-08T22:34:00.167Z,102155.67
2023-04-08T22:36:28.632Z,102156.20
2023-04-08T22:38:56.803Z,102159.00
2023-04-08T22:41:25.012Z,102160.44
2023-04-08T22:43:53.920Z,102164.49
2023-04-08T22:46:22.701Z,102171.54
2023-04-08T22:48:51.385Z,102177.16
2023-04-08T22:51:21.095Z,102185.07
2023-04-08T22:53:49.310Z,102191.59
2023-04-08T22:56:17.559Z,102191.95
2023-04-08T22:58:50.824Z,102193.38
2023-04-08T23:01:22.519Z,102198.11
2023-04-08T23:03:51.788Z,102200.92
2023-04-08T23:06:29.018Z,102205.15
2023-04-08T23:10:47.187Z,102228.31
2023-04-08T23:13:15.725Z,102225.86
2023-04-08T23:15:44.559Z,102227.79
2023-04-08T23:18:12.917Z,102229.88
2023-04-08T23:20:41.228Z,102232.30
2023-04-08T23:23:09.831Z,102236.17
2023-04-08T23:25:38.409Z,102246.33
2023-04-08T23:28:09.207Z,102250.52
2023-04-08T23:30:37.934Z,102251.40
2023-04-08T23:33:06.924Z,102257.19
2023-04-08T23:35:35.651Z,102261.58
2023-04-08T23:38:04.292Z,102265.96
2023-04-08T23:40:32.568Z,102270.70
2023-04-08T23:43:03.840Z,102271.42
2023-04-08T23:45:33.729Z,102272.31
2023-04-08T23:48:02.295Z,102272.84
2023-04-08T23:50:31.933Z,102272.14
2023-04-08T23:53:00.926Z,102274.61
2023-04-08T23:55:29.345Z,102275.67
2023-04-08T23:57:57.629Z,102276.58
